Time;durP1;ratioP1;P1;durP2;ratioP2;P2;SDS_P1;SDS_P2;PMS_P1;PMS_P2;Temp;Humidity;BMP_temperature;BMP_pressure;BME280_temperature;BME280_humidity;BME280_pressure;Samples;Min_cycle;Max_cycle;Signal;HPM_P1;HPM_P2
2022/12/11 12:55:21;;;;;;;0.40;0.40;;;;;;;;;;5101853;27;20882;-75
2022/12/11 12:57:49;;;;;;;0.37;0.37;;;;;;;;;;5101605;28;20190;-74
2022/12/11 13:00:26;;;;;;;0.33;0.33;;;;;;;;;;5101379;28;20274;-74
2022/12/11 13:02:54;;;;;;;0.30;0.30;;;;;;;;;;5101413;28;20190;-76
2022/12/11 13:05:23;;;;;;;0.30;0.30;;;;;;;;;;5101256;28;20243;-74
2022/12/11 13:07:50;;;;;;;0.30;0.30;;;;;;;;;;5101337;28;20402;-71
2022/12/11 13:10:27;;;;;;;0.30;0.30;;;;;;;;;;5101385;28;20242;-68
2022/12/11 13:12:54;;;;;;;0.30;0.30;;;;;;;;;;5101299;28;20401;-68
2022/12/11 13:15:32;;;;;;;0.30;0.30;;;;;;;;;;5100993;28;20203;-67
2022/12/11 13:17:59;;;;;;;1.67;1.57;;;;;;;;;;5101173;28;20260;-69
2022/12/11 13:20:26;;;;;;;0.30;0.30;;;;;;;;;;5100800;28;20216;-69
2022/12/11 13:23:08;;;;;;;0.30;0.30;;;;;;;;;;5100938;28;20448;-68
2022/12/11 13:25:47;;;;;;;0.30;0.30;;;;;;;;;;5101209;28;20197;-68
2022/12/11 13:28:20;;;;;;;0.30;0.30;;;;;;;;;;5101186;28;20434;-68
2022/12/11 13:30:56;;;;;;;0.30;0.30;;;;;;;;;;5101049;28;20193;-68
2022/12/11 13:33:23;;;;;;;0.30;0.30;;;;;;;;;;5100896;28;20395;-67
2022/12/11 13:36:09;;;;;;;0.30;0.30;;;;;;;;;;5100828;28;20273;-67
2022/12/11 13:38:36;;;;;;;0.30;0.30;;;;;;;;;;5100675;28;20205;-67
2022/12/11 13:41:09;;;;;;;0.30;0.30;;;;;;;;;;5100523;28;20207;-67
2022/12/11 13:43:36;;;;;;;0.20;0.20;;;;;;;;;;5100648;28;20226;-69
2022/12/11 13:46:03;;;;;;;0.30;0.30;;;;;;;;;;5100668;28;20205;-68
2022/12/11 13:48:36;;;;;;;0.30;0.30;;;;;;;;;;5100589;28;20276;-69
2022/12/11 13:51:04;;;;;;;0.30;0.30;;;;;;;;;;5100674;28;20509;-68
2022/12/11 13:53:30;;;;;;;0.30;0.30;;;;;;;;;;5100346;28;20643;-68
2022/12/11 13:55:57;;;;;;;0.30;0.30;;;;;;;;;;5100160;28;20209;-67
2022/12/11 13:58:25;;;;;;;0.30;0.30;;;;;;;;;;5100577;28;20203;-68
2022/12/11 14:01:01;;;;;;;0.30;0.30;;;;;;;;;;5100475;28;20208;-68
2022/12/11 14:03:28;;;;;;;0.20;0.20;;;;;;;;;;5100355;28;20230;-67
2022/12/11 14:05:55;;;;;;;0.30;0.30;;;;;;;;;;5089841;28;20555;-67
2022/12/11 14:08:22;;;;;;;0.30;0.30;;;;;;;;;;5086404;28;20538;-69
2022/12/11 14:10:52;;;;;;;0.30;0.30;;;;;;;;;;5086675;28;20403;-67
2022/12/11 14:13:21;;;;;;;0.30;0.30;;;;;;;;;;5086523;28;20239;-67
2022/12/11 14:15:49;;;;;;;0.30;0.30;;;;;;;;;;5086635;28;20253;-69
2022/12/11 14:18:18;;;;;;;0.30;0.30;;;;;;;;;;5086575;28;20208;-68
2022/12/11 14:20:44;;;;;;;0.30;0.30;;;;;;;;;;5086529;28;20223;-69
2022/12/11 14:23:16;;;;;;;0.30;0.30;;;;;;;;;;5086512;28;20502;-67
2022/12/11 14:25:51;;;;;;;0.30;0.30;;;;;;;;;;5086483;28;20200;-68
2022/12/11 14:28:17;;;;;;;0.30;0.30;;;;;;;;;;5086218;28;20234;-67
2022/12/11 14:30:46;;;;;;;0.30;0.30;;;;;;;;;;5086361;28;20242;-66
2022/12/11 14:33:14;;;;;;;0.30;0.30;;;;;;;;;;5085914;28;20211;-67
2022/12/11 14:35:42;;;;;;;0.30;0.30;;;;;;;;;;5086279;28;20283;-68
2022/12/11 14:38:13;;;;;;;0.30;0.30;;;;;;;;;;5086000;28;20212;-67
2022/12/11 14:40:43;;;;;;;0.30;0.30;;;;;;;;;;5086169;28;20196;-68
2022/12/11 14:43:11;;;;;;;0.30;0.30;;;;;;;;;;5085873;28;20214;-68
2022/12/11 14:45:39;;;;;;;0.30;0.30;;;;;;;;;;5086025;28;20429;-67
2022/12/11 14:48:08;;;;;;;0.30;0.30;;;;;;;;;;5085834;28;20508;-67
2022/12/11 14:50:37;;;;;;;0.30;0.30;;;;;;;;;;5085951;28;20203;-68
2022/12/11 14:53:07;;;;;;;0.30;0.30;;;;;;;;;;5085498;28;20257;-67
2022/12/11 14:55:34;;;;;;;0.30;0.30;;;;;;;;;;5085643;28;20259;-67
2022/12/11 14:58:02;;;;;;;0.97;0.97;;;;;;;;;;5085794;28;20434;-67
2022/12/11 15:00:30;;;;;;;0.60;0.60;;;;;;;;;;5085487;28;20270;-68
2022/12/11 15:02:57;;;;;;;0.30;0.30;;;;;;;;;;5085465;28;20204;-68
2022/12/11 15:05:23;;;;;;;0.30;0.30;;;;;;;;;;5085604;28;20295;-68
2022/12/11 15:07:55;;;;;;;0.30;0.30;;;;;;;;;;5085263;28;20237;-68
2022/12/11 15:10:26;;;;;;;0.30;0.30;;;;;;;;;;5085260;28;20249;-67
2022/12/11 15:12:54;;;;;;;0.30;0.30;;;;;;;;;;5085241;28;20223;-68
2022/12/11 15:15:20;;;;;;;0.30;0.30;;;;;;;;;;5085482;28;20424;-67
2022/12/11 15:17:48;;;;;;;0.30;0.30;;;;;;;;;;5084494;28;20210;-68
2022/12/11 15:20:22;;;;;;;0.30;0.30;;;;;;;;;;5085394;28;20236;-68
2022/12/11 15:22:49;;;;;;;0.30;0.30;;;;;;;;;;5084941;28;20224;-67
2022/12/11 15:25:20;;;;;;;0.30;0.30;;;;;;;;;;5084889;28;20262;-68
2022/12/11 15:27:49;;;;;;;0.30;0.30;;;;;;;;;;5085107;28;20203;-68
2022/12/11 15:30:27;;;;;;;0.40;0.40;;;;;;;;;;5085193;28;20377;-68
2022/12/11 15:33:01;;;;;;;0.30;0.30;;;;;;;;;;5084774;28;20207;-68
2022/12/11 15:35:27;;;;;;;0.30;0.30;;;;;;;;;;5085084;28;20209;-67
2022/12/11 15:37:54;;;;;;;0.30;0.30;;;;;;;;;;5084996;28;20203;-68
2022/12/11 15:40:22;;;;;;;0.40;0.40;;;;;;;;;;5084667;28;20203;-67
2022/12/11 15:42:49;;;;;;;0.30;0.30;;;;;;;;;;5084804;28;20203;-67
2022/12/11 15:45:17;;;;;;;0.30;0.30;;;;;;;;;;5084457;28;20246;-68
2022/12/11 15:47:44;;;;;;;0.30;0.30;;;;;;;;;;5084449;28;20203;-70
2022/12/11 15:50:14;;;;;;;0.30;0.30;;;;;;;;;;5084325;28;20270;-68
2022/12/11 15:52:41;;;;;;;0.30;0.30;;;;;;;;;;5084538;28;20198;-68
2022/12/11 15:55:08;;;;;;;0.30;0.30;;;;;;;;;;5084354;28;20199;-69
2022/12/11 15:57:36;;;;;;;0.30;0.30;;;;;;;;;;5084228;28;20270;-69
2022/12/11 16:00:05;;;;;;;0.30;0.30;;;;;;;;;;5084572;28;20211;-67
2022/12/11 16:02:31;;;;;;;0.40;0.40;;;;;;;;;;5084503;28;20205;-69
2022/12/11 16:04:58;;;;;;;0.30;0.30;;;;;;;;;;5084560;28;20580;-68
2022/12/11 16:07:25;;;;;;;0.33;0.33;;;;;;;;;;5084468;28;20217;-69
2022/12/11 16:09:52;;;;;;;0.40;0.40;;;;;;;;;;5084563;28;20210;-68
2022/12/11 16:12:19;;;;;;;0.30;0.30;;;;;;;;;;5084082;28;20505;-67
2022/12/11 16:14:46;;;;;;;0.30;0.30;;;;;;;;;;5084013;28;20205;-67
2022/12/11 16:17:14;;;;;;;0.30;0.30;;;;;;;;;;5084342;28;20256;-68
2022/12/11 16:19:41;;;;;;;0.40;0.40;;;;;;;;;;5084381;28;20220;-67
2022/12/11 16:22:08;;;;;;;0.30;0.30;;;;;;;;;;5083879;28;20226;-67
2022/12/11 16:24:35;;;;;;;0.30;0.30;;;;;;;;;;5084314;28;20432;-67
2022/12/11 16:27:01;;;;;;;0.30;0.30;;;;;;;;;;5083872;28;20203;-67
2022/12/11 16:29:28;;;;;;;0.30;0.30;;;;;;;;;;5084052;28;20355;-68
2022/12/11 16:31:55;;;;;;;0.30;0.30;;;;;;;;;;5083756;28;20203;-67
2022/12/11 16:34:24;;;;;;;0.30;0.30;;;;;;;;;;5084299;28;20207;-67
2022/12/11 16:36:51;;;;;;;0.30;0.30;;;;;;;;;;5083727;28;20204;-68
2022/12/11 16:39:18;;;;;;;0.30;0.30;;;;;;;;;;5083556;28;20242;-67
2022/12/11 16:41:44;;;;;;;0.30;0.30;;;;;;;;;;5083910;28;20203;-67
2022/12/11 16:44:11;;;;;;;0.30;0.30;;;;;;;;;;5083915;28;20254;-68
2022/12/11 16:46:37;;;;;;;0.30;0.30;;;;;;;;;;5083527;28;20210;-68
2022/12/11 16:49:05;;;;;;;0.30;0.30;;;;;;;;;;5083904;28;20231;-67
2022/12/11 16:51:31;;;;;;;0.30;0.30;;;;;;;;;;5083538;28;20205;-68
2022/12/11 16:53:58;;;;;;;0.30;0.30;;;;;;;;;;5083413;28;20286;-68
2022/12/11 16:56:25;;;;;;;0.30;0.30;;;;;;;;;;5083837;28;20203;-68
2022/12/11 16:58:51;;;;;;;0.30;0.30;;;;;;;;;;5083763;28;20210;-68
2022/12/11 17:01:18;;;;;;;0.40;0.40;;;;;;;;;;5083531;28;20276;-68
2022/12/11 17:03:44;;;;;;;0.30;0.30;;;;;;;;;;5083568;28;20203;-67
2022/12/11 17:06:13;;;;;;;0.30;0.30;;;;;;;;;;5083408;28;20226;-67
2022/12/11 17:08:41;;;;;;;0.30;0.30;;;;;;;;;;5083778;28;20234;-68
2022/12/11 17:11:09;;;;;;;0.30;0.30;;;;;;;;;;5083733;28;20212;-67
2022/12/11 17:13:35;;;;;;;0.40;0.40;;;;;;;;;;5083702;28;20207;-66
2022/12/11 17:16:04;;;;;;;0.30;0.30;;;;;;;;;;5083596;28;20267;-67
2022/12/11 17:18:30;;;;;;;1.27;1.23;;;;;;;;;;5083686;28;20261;-67
2022/12/11 17:20:56;;;;;;;0.40;0.40;;;;;;;;;;5083558;28;20224;-67
2022/12/11 17:23:24;;;;;;;0.40;0.40;;;;;;;;;;5083397;28;20242;-67
2022/12/11 17:25:51;;;;;;;0.40;0.40;;;;;;;;;;5083389;28;20219;-67
2022/12/11 17:31:20;;;;;;;0.30;0.30;;;;;;;;;;5083347;28;20158;-66
2022/12/11 17:33:48;;;;;;;0.40;0.40;;;;;;;;;;5083557;28;20242;-68
2022/12/11 17:36:15;;;;;;;0.40;0.40;;;;;;;;;;5083406;28;20203;-67
2022/12/11 17:38:43;;;;;;;0.30;0.30;;;;;;;;;;5083443;28;20250;-67
2022/12/11 17:41:11;;;;;;;0.30;0.30;;;;;;;;;;5085589;28;20242;-67
2022/12/11 17:43:37;;;;;;;0.30;0.30;;;;;;;;;;5087183;28;20235;-66
2022/12/11 17:46:04;;;;;;;0.30;0.30;;;;;;;;;;5087060;28;20469;-67
2022/12/11 17:48:31;;;;;;;0.30;0.30;;;;;;;;;;5086969;28;20234;-65
2022/12/11 17:50:57;;;;;;;0.30;0.30;;;;;;;;;;5086728;28;20270;-65
2022/12/11 17:53:25;;;;;;;0.30;0.30;;;;;;;;;;5086524;28;20235;-68
2022/12/11 17:55:52;;;;;;;0.30;0.30;;;;;;;;;;5087011;28;20244;-65
2022/12/11 17:58:20;;;;;;;0.40;0.40;;;;;;;;;;5086738;28;20211;-64
2022/12/11 18:00:48;;;;;;;0.30;0.30;;;;;;;;;;5086577;28;20203;-65
2022/12/11 18:03:14;;;;;;;0.30;0.30;;;;;;;;;;5086674;28;20274;-67
2022/12/11 18:05:41;;;;;;;0.30;0.30;;;;;;;;;;5086742;28;20234;-66
2022/12/11 18:08:07;;;;;;;0.30;0.30;;;;;;;;;;5086807;28;20233;-68
2022/12/11 18:10:35;;;;;;;0.30;0.30;;;;;;;;;;5086463;28;20203;-64
2022/12/11 18:13:03;;;;;;;0.33;0.33;;;;;;;;;;5086343;28;20245;-66
2022/12/11 18:15:29;;;;;;;0.30;0.30;;;;;;;;;;5086334;28;20199;-66
2022/12/11 18:17:56;;;;;;;0.30;0.30;;;;;;;;;;5086286;28;20234;-66
2022/12/11 18:20:23;;;;;;;0.40;0.40;;;;;;;;;;5086545;28;20235;-66
2022/12/11 18:22:49;;;;;;;0.30;0.30;;;;;;;;;;5086177;28;20280;-65
2022/12/11 18:25:16;;;;;;;0.30;0.30;;;;;;;;;;5086067;28;20219;-66
2022/12/11 18:27:42;;;;;;;0.30;0.30;;;;;;;;;;5086358;28;20390;-66
2022/12/11 18:30:12;;;;;;;0.30;0.30;;;;;;;;;;5086058;28;20210;-65
2022/12/11 18:32:39;;;;;;;0.30;0.30;;;;;;;;;;5085940;28;20274;-66
2022/12/11 18:35:06;;;;;;;0.30;0.30;;;;;;;;;;5086008;28;20200;-66
2022/12/11 18:37:32;;;;;;;0.40;0.40;;;;;;;;;;5086318;28;20259;-66
2022/12/11 18:39:58;;;;;;;0.30;0.30;;;;;;;;;;5086399;28;20291;-67
2022/12/11 18:42:25;;;;;;;0.30;0.30;;;;;;;;;;5086170;28;20246;-65
2022/12/11 18:44:51;;;;;;;0.30;0.30;;;;;;;;;;5086217;28;20230;-65
2022/12/11 18:47:19;;;;;;;0.30;0.30;;;;;;;;;;5086040;28;20271;-65
2022/12/11 18:49:45;;;;;;;0.77;0.77;;;;;;;;;;5086177;28;20393;-65
2022/12/11 18:52:12;;;;;;;0.30;0.30;;;;;;;;;;5085573;28;20210;-65
2022/12/11 18:54:38;;;;;;;0.30;0.30;;;;;;;;;;5085553;28;20332;-65
2022/12/11 18:57:04;;;;;;;0.30;0.30;;;;;;;;;;5085523;28;20234;-65
2022/12/11 18:59:31;;;;;;;0.30;0.30;;;;;;;;;;5085998;28;20382;-66
2022/12/11 19:01:57;;;;;;;0.30;0.30;;;;;;;;;;5085716;28;20227;-66
2022/12/11 19:04:25;;;;;;;0.40;0.40;;;;;;;;;;5085727;28;20203;-66
2022/12/11 19:06:51;;;;;;;0.90;0.90;;;;;;;;;;5085511;28;20249;-66
2022/12/11 19:09:18;;;;;;;0.40;0.40;;;;;;;;;;5085664;28;20300;-66
2022/12/11 19:11:45;;;;;;;0.30;0.30;;;;;;;;;;5085537;28;20203;-66
2022/12/11 19:14:11;;;;;;;0.30;0.30;;;;;;;;;;5085619;28;20375;-67
2022/12/11 19:16:39;;;;;;;0.30;0.30;;;;;;;;;;5085207;28;20199;-66
2022/12/11 19:19:08;;;;;;;0.30;0.30;;;;;;;;;;5085476;28;20212;-65
2022/12/11 19:21:36;;;;;;;0.30;0.30;;;;;;;;;;5085334;28;20287;-65
2022/12/11 19:24:03;;;;;;;0.30;0.30;;;;;;;;;;5085193;28;20225;-66
2022/12/11 19:26:29;;;;;;;0.30;0.30;;;;;;;;;;5084877;28;20223;-66
2022/12/11 19:28:58;;;;;;;0.30;0.30;;;;;;;;;;5085250;28;20210;-65
2022/12/11 19:31:26;;;;;;;0.30;0.30;;;;;;;;;;5084846;28;20205;-66
2022/12/11 19:33:52;;;;;;;0.30;0.30;;;;;;;;;;5084959;28;20242;-67
2022/12/11 19:36:20;;;;;;;0.30;0.30;;;;;;;;;;5084981;28;20231;-67
2022/12/11 19:38:48;;;;;;;0.30;0.30;;;;;;;;;;5084862;28;20204;-67
2022/12/11 19:41:15;;;;;;;0.30;0.30;;;;;;;;;;5084900;28;20237;-66
2022/12/11 19:43:42;;;;;;;0.30;0.30;;;;;;;;;;5084555;28;20207;-66
2022/12/11 19:46:08;;;;;;;0.30;0.30;;;;;;;;;;5084387;28;20242;-66
2022/12/11 19:48:36;;;;;;;0.30;0.30;;;;;;;;;;5084738;28;20204;-66
2022/12/11 19:51:03;;;;;;;0.30;0.30;;;;;;;;;;5084420;28;20230;-66
2022/12/11 19:53:29;;;;;;;0.80;0.80;;;;;;;;;;5084488;28;20246;-66
2022/12/11 19:55:57;;;;;;;0.30;0.30;;;;;;;;;;5084591;28;20230;-65
2022/12/11 19:58:24;;;;;;;0.30;0.30;;;;;;;;;;5084406;28;20238;-66
2022/12/11 20:00:50;;;;;;;0.30;0.30;;;;;;;;;;5084474;28;20406;-66
2022/12/11 20:03:16;;;;;;;0.30;0.30;;;;;;;;;;5083783;28;20262;-66
2022/12/11 20:05:43;;;;;;;0.30;0.30;;;;;;;;;;5084343;28;20472;-66
2022/12/11 20:08:09;;;;;;;0.30;0.30;;;;;;;;;;5084310;28;20240;-66
2022/12/11 20:10:36;;;;;;;0.30;0.30;;;;;;;;;;5084361;28;20243;-66
2022/12/11 20:13:03;;;;;;;0.30;0.30;;;;;;;;;;5083941;28;20247;-64
2022/12/11 20:15:31;;;;;;;0.30;0.30;;;;;;;;;;5084300;28;20230;-65
2022/12/11 20:17:58;;;;;;;0.40;0.40;;;;;;;;;;5084186;28;20386;-64
2022/12/11 20:20:26;;;;;;;0.30;0.30;;;;;;;;;;5083865;28;20230;-64
2022/12/11 20:22:54;;;;;;;0.30;0.30;;;;;;;;;;5084018;28;20230;-65
2022/12/11 20:25:20;;;;;;;0.30;0.30;;;;;;;;;;5084071;28;20285;-64
2022/12/11 20:27:47;;;;;;;0.30;0.30;;;;;;;;;;5084130;28;20452;-65
2022/12/11 20:30:14;;;;;;;0.30;0.30;;;;;;;;;;5084201;28;20465;-65
2022/12/11 20:32:41;;;;;;;0.30;0.30;;;;;;;;;;5083726;28;20270;-65
2022/12/11 20:35:09;;;;;;;0.30;0.30;;;;;;;;;;5083730;28;20211;-65
2022/12/11 20:37:36;;;;;;;0.30;0.30;;;;;;;;;;5083972;28;20243;-66
2022/12/11 20:40:02;;;;;;;0.30;0.30;;;;;;;;;;5083664;28;20230;-66
2022/12/11 20:42:28;;;;;;;0.30;0.30;;;;;;;;;;5083690;28;20226;-66
2022/12/11 20:44:55;;;;;;;0.30;0.30;;;;;;;;;;5084177;28;20434;-65
2022/12/11 20:47:22;;;;;;;0.30;0.30;;;;;;;;;;5083953;28;20470;-65
2022/12/11 20:49:50;;;;;;;0.40;0.40;;;;;;;;;;5084078;28;20278;-65
2022/12/11 20:52:16;;;;;;;0.30;0.30;;;;;;;;;;5083939;28;20267;-66
2022/12/11 20:54:43;;;;;;;0.30;0.30;;;;;;;;;;5083475;28;20223;-65
2022/12/11 20:57:09;;;;;;;0.40;0.40;;;;;;;;;;5083528;28;20234;-65
2022/12/11 20:59:36;;;;;;;0.30;0.30;;;;;;;;;;5083973;28;20275;-65
2022/12/11 21:02:03;;;;;;;0.40;0.40;;;;;;;;;;5083414;28;20203;-65
2022/12/11 21:04:31;;;;;;;0.30;0.30;;;;;;;;;;5083981;28;20203;-64
2022/12/11 21:06:59;;;;;;;0.33;0.33;;;;;;;;;;5083697;28;20299;-64
2022/12/11 21:09:26;;;;;;;0.30;0.30;;;;;;;;;;5083862;28;20282;-65
2022/12/11 21:11:53;;;;;;;0.30;0.30;;;;;;;;;;5083351;28;20273;-64
2022/12/11 21:14:19;;;;;;;0.40;0.40;;;;;;;;;;5083873;28;20447;-65
2022/12/11 21:16:46;;;;;;;0.30;0.30;;;;;;;;;;5087058;28;20235;-65
2022/12/11 21:19:14;;;;;;;0.30;0.30;;;;;;;;;;5087587;28;20209;-64
2022/12/11 21:21:43;;;;;;;0.30;0.30;;;;;;;;;;5087203;28;20231;-65
2022/12/11 21:24:13;;;;;;;0.40;0.40;;;;;;;;;;5087616;28;20213;-65
2022/12/11 21:26:40;;;;;;;0.30;0.30;;;;;;;;;;5087410;28;20430;-64
2022/12/11 21:29:06;;;;;;;0.30;0.30;;;;;;;;;;5087614;28;20447;-64
2022/12/11 21:31:33;;;;;;;0.30;0.30;;;;;;;;;;5087427;28;20235;-64
2022/12/11 21:33:59;;;;;;;0.30;0.30;;;;;;;;;;5087414;28;20203;-64
2022/12/11 21:36:26;;;;;;;0.30;0.30;;;;;;;;;;5087369;28;20223;-64
2022/12/11 21:38:53;;;;;;;0.30;0.30;;;;;;;;;;5087338;28;20274;-65
2022/12/11 21:41:21;;;;;;;0.30;0.30;;;;;;;;;;5087309;28;20440;-65
2022/12/11 21:43:48;;;;;;;0.30;0.30;;;;;;;;;;5087220;28;20253;-67
2022/12/11 21:46:15;;;;;;;0.30;0.30;;;;;;;;;;5086780;28;20259;-65
2022/12/11 21:48:42;;;;;;;4.43;2.93;;;;;;;;;;5087173;28;20203;-66
2022/12/11 21:51:09;;;;;;;0.30;0.30;;;;;;;;;;5087044;28;20235;-68
2022/12/11 21:53:36;;;;;;;0.30;0.30;;;;;;;;;;5086563;28;20243;-66
2022/12/11 21:56:05;;;;;;;0.30;0.30;;;;;;;;;;5086959;28;20526;-67
2022/12/11 21:58:32;;;;;;;0.30;0.30;;;;;;;;;;5086978;28;20242;-67
2022/12/11 22:00:58;;;;;;;0.30;0.30;;;;;;;;;;5086586;28;20211;-67
2022/12/11 22:03:24;;;;;;;0.30;0.30;;;;;;;;;;5086740;28;20234;-65
2022/12/11 22:05:51;;;;;;;0.30;0.30;;;;;;;;;;5086346;28;20255;-69
2022/12/11 22:08:17;;;;;;;0.60;0.60;;;;;;;;;;5086238;28;20235;-67
2022/12/11 22:10:44;;;;;;;0.30;0.30;;;;;;;;;;5086639;28;20203;-67
2022/12/11 22:13:11;;;;;;;0.30;0.30;;;;;;;;;;5086705;28;20203;-66
2022/12/11 22:15:38;;;;;;;0.30;0.30;;;;;;;;;;5086347;28;20271;-66
2022/12/11 22:18:04;;;;;;;0.30;0.30;;;;;;;;;;5086654;28;20445;-66
2022/12/11 22:20:31;;;;;;;0.30;0.30;;;;;;;;;;5086560;28;20393;-66
2022/12/11 22:22:57;;;;;;;0.30;0.30;;;;;;;;;;5086502;28;20258;-67
2022/12/11 22:25:24;;;;;;;0.30;0.30;;;;;;;;;;5086206;28;20204;-68
2022/12/11 22:27:50;;;;;;;0.30;0.30;;;;;;;;;;5086101;28;20265;-69
2022/12/11 22:30:18;;;;;;;0.30;0.30;;;;;;;;;;5086440;28;20228;-67
2022/12/11 22:32:44;;;;;;;0.30;0.30;;;;;;;;;;5086231;28;20280;-67
2022/12/11 22:35:11;;;;;;;0.30;0.30;;;;;;;;;;5086336;28;20241;-66
2022/12/11 22:37:37;;;;;;;0.30;0.30;;;;;;;;;;5086221;28;20238;-66
2022/12/11 22:40:05;;;;;;;0.30;0.30;;;;;;;;;;5086268;28;20474;-66
2022/12/11 22:42:31;;;;;;;1.07;1.07;;;;;;;;;;5086158;28;20207;-65
2022/12/11 22:44:58;;;;;;;0.30;0.30;;;;;;;;;;5086275;28;20234;-69
2022/12/11 22:47:25;;;;;;;0.30;0.30;;;;;;;;;;5085991;28;20231;-69
2022/12/11 22:49:52;;;;;;;0.30;0.30;;;;;;;;;;5086190;28;20245;-69
2022/12/11 22:52:18;;;;;;;0.30;0.30;;;;;;;;;;5085961;28;20274;-67
2022/12/11 22:54:45;;;;;;;0.30;0.30;;;;;;;;;;5085474;28;20287;-67
2022/12/11 22:57:13;;;;;;;0.30;0.30;;;;;;;;;;5085875;28;20562;-70
2022/12/11 22:59:39;;;;;;;0.30;0.30;;;;;;;;;;5085965;28;20253;-66
2022/12/11 23:02:05;;;;;;;0.30;0.30;;;;;;;;;;5085751;28;20237;-69
2022/12/11 23:04:33;;;;;;;0.30;0.30;;;;;;;;;;5085343;28;20203;-68
2022/12/11 23:07:00;;;;;;;0.30;0.30;;;;;;;;;;5085600;28;20227;-68
2022/12/11 23:09:26;;;;;;;0.30;0.30;;;;;;;;;;5085731;28;20278;-67
2022/12/11 23:11:54;;;;;;;12.47;11.30;;;;;;;;;;5085519;28;20235;-68
2022/12/11 23:14:21;;;;;;;0.30;0.30;;;;;;;;;;5085559;28;20208;-68
2022/12/11 23:16:47;;;;;;;0.30;0.30;;;;;;;;;;5085185;28;20231;-68
2022/12/11 23:19:14;;;;;;;0.30;0.30;;;;;;;;;;5085499;28;20270;-68
2022/12/11 23:21:42;;;;;;;0.30;0.30;;;;;;;;;;5085301;28;20547;-68
2022/12/11 23:24:08;;;;;;;0.30;0.30;;;;;;;;;;5085359;28;20207;-71
2022/12/11 23:26:35;;;;;;;0.30;0.30;;;;;;;;;;5085272;28;20559;-72
2022/12/11 23:29:01;;;;;;;0.30;0.30;;;;;;;;;;5084947;28;20402;-70
2022/12/11 23:31:28;;;;;;;0.30;0.30;;;;;;;;;;5085171;28;20277;-70
2022/12/11 23:33:55;;;;;;;0.30;0.30;;;;;;;;;;5085209;28;20214;-70
2022/12/11 23:36:22;;;;;;;0.30;0.30;;;;;;;;;;5085070;28;20364;-70
2022/12/11 23:38:50;;;;;;;0.30;0.30;;;;;;;;;;5084278;28;20216;-69
2022/12/11 23:41:16;;;;;;;0.30;0.30;;;;;;;;;;5085020;28;20537;-70
2022/12/11 23:43:43;;;;;;;0.30;0.30;;;;;;;;;;5084800;28;20222;-69
2022/12/11 23:46:11;;;;;;;0.30;0.30;;;;;;;;;;5084536;28;20271;-69
2022/12/11 23:48:38;;;;;;;0.30;0.30;;;;;;;;;;5084832;28;20204;-69
2022/12/11 23:51:05;;;;;;;0.30;0.30;;;;;;;;;;5084873;28;20274;-72
2022/12/11 23:53:31;;;;;;;0.30;0.30;;;;;;;;;;5084490;28;20246;-72
2022/12/11 23:56:04;;;;;;;0.30;0.30;;;;;;;;;;5084641;28;20553;-72
2022/12/11 23:58:30;;;;;;;0.30;0.30;;;;;;;;;;5084869;28;20247;-72
